Time;durP1;ratioP1;P1;durP2;ratioP2;P2;SDS_P1;SDS_P2;PMS_P1;PMS_P2;Temp;Humidity;BMP_temperature;BMP_pressure;BME280_temperature;BME280_humidity;BME280_pressure;Samples;Min_cycle;Max_cycle;Signal;HPM_P1;HPM_P2
2022/08/15 00:00:19;;;;;;;11.88;10.68;;;;;;;22.85;100.00;99262.53;5054020;28;20194;-78
2022/08/15 00:02:48;;;;;;;12.48;10.65;;;;;;;22.37;100.00;99202.25;5091776;28;20672;-78
2022/08/15 00:05:23;;;;;;;12.45;11.15;;;;;;;22.61;100.00;99259.25;5090457;28;20206;-78
2022/08/15 00:07:50;;;;;;;13.00;11.23;;;;;;;22.70;100.00;99261.47;5085965;28;20262;-79
2022/08/15 00:10:19;;;;;;;12.32;11.00;;;;;;;22.36;100.00;99211.13;5082131;28;20211;-77
2022/08/15 00:12:47;;;;;;;11.18;10.00;;;;;;;22.58;100.00;99250.63;5054833;28;20213;-79
2022/08/15 00:15:18;;;;;;;11.43;10.32;;;;;;;22.71;100.00;99262.34;5074147;28;20217;-77
2022/08/15 00:17:46;;;;;;;13.93;11.48;;;;;;;22.73;100.00;99269.25;5091332;28;20319;-76
2022/08/15 00:20:14;;;;;;;11.05;9.95;;;;;;;22.73;100.00;99271.91;5080662;28;20218;-78
2022/08/15 00:22:48;;;;;;;13.65;10.75;;;;;;;22.63;100.00;99269.75;5071649;28;20197;-78
2022/08/15 00:25:16;;;;;;;16.65;11.20;;;;;;;22.29;100.00;99222.91;5091425;28;20201;-78
2022/08/15 00:27:43;;;;;;;12.63;11.43;;;;;;;22.41;100.00;99266.38;5076786;28;20198;-79
2022/08/15 00:30:12;;;;;;;12.18;10.98;;;;;;;22.52;100.00;99261.44;5071078;28;20198;-78
2022/08/15 00:32:39;;;;;;;11.95;10.77;;;;;;;22.63;100.00;99264.44;5033220;28;20206;-79
2022/08/15 00:35:35;;;;;;;12.50;11.02;;;;;;;22.59;100.00;99261.09;5088636;28;20197;-79
2022/08/15 00:37:58;;;;;;;11.43;10.25;;;;;;;22.56;100.00;99252.44;5088576;28;20718;-78
2022/08/15 00:40:26;;;;;;;11.35;10.23;;;;;;;22.61;100.00;99258.41;5076514;28;20229;-79
2022/08/15 00:42:53;;;;;;;11.85;10.65;;;;;;;22.51;100.00;99254.47;5087991;28;20190;-78
2022/08/15 00:45:23;;;;;;;12.40;9.82;;;;;;;22.22;100.00;99218.84;5071412;28;20210;-79
2022/08/15 00:50:31;;;;;;;10.52;9.52;;;;;;;22.57;100.00;99256.81;5060774;28;20287;-79
2022/08/15 00:53:02;;;;;;;11.25;9.90;;;;;;;22.59;100.00;99247.88;5042512;28;20286;-78
2022/08/15 00:55:30;;;;;;;11.27;10.07;;;;;;;22.72;100.00;99258.78;5059833;28;20194;-77
2022/08/15 00:57:57;;;;;;;12.20;10.93;;;;;;;22.48;100.00;99254.59;5071800;28;20202;-79
2022/08/15 01:00:27;;;;;;;11.10;10.00;;;;;;;22.60;100.00;99264.59;5071218;28;20214;-78
2022/08/15 01:02:59;;;;;;;10.77;9.65;;;;;;;22.55;100.00;99256.03;5071024;28;20203;-79
2022/08/15 01:05:26;;;;;;;10.93;9.77;;;;;;;22.53;100.00;99266.69;5070790;28;20210;-79
2022/08/15 01:07:53;;;;;;;11.32;9.23;;;;;;;22.68;100.00;99271.28;5088154;28;20239;-79
2022/08/15 01:10:21;;;;;;;12.02;10.82;;;;;;;22.70;100.00;99263.25;5090863;28;20657;-78
2022/08/15 01:12:48;;;;;;;11.52;10.30;;;;;;;22.85;100.00;99275.75;5090708;28;20205;-78
2022/08/15 01:15:16;;;;;;;10.50;9.23;;;;;;;23.04;100.00;99273.94;5090436;28;20205;-78
2022/08/15 01:17:44;;;;;;;13.48;9.95;;;;;;;22.44;100.00;99200.22;5074223;28;20253;-79
2022/08/15 01:20:14;;;;;;;11.95;10.35;;;;;;;22.95;100.00;99279.66;5079113;28;20265;-78
2022/08/15 01:22:52;;;;;;;11.43;10.00;;;;;;;22.91;100.00;99264.88;5086091;28;20194;-76
2022/08/15 01:25:23;;;;;;;14.13;10.45;;;;;;;22.77;100.00;99250.59;5035179;28;20195;-80
2022/08/15 01:27:53;;;;;;;11.10;10.00;;;;;;;23.01;100.00;99281.19;5087713;28;20199;-79
2022/08/15 01:30:28;;;;;;;11.38;9.52;;;;;;;23.03;100.00;99287.25;5055483;28;20255;-79
2022/08/15 01:32:55;;;;;;;13.07;10.27;;;;;;;22.96;100.00;99296.41;5079884;28;20714;-79
2022/08/15 01:35:22;;;;;;;12.88;10.52;;;;;;;22.71;100.00;99284.34;5091186;28;20600;-78
2022/08/15 01:37:51;;;;;;;11.95;10.70;;;;;;;22.69;100.00;99294.13;5054859;28;20728;-79
2022/08/15 01:40:29;;;;;;;11.35;9.75;;;;;;;22.81;100.00;99270.69;5091235;28;20220;-78
2022/08/15 01:42:57;;;;;;;11.60;10.30;;;;;;;22.73;100.00;99268.41;5089467;28;20205;-80
2022/08/15 01:45:29;;;;;;;12.27;10.98;;;;;;;22.80;100.00;99261.91;5072129;28;20211;-79
2022/08/15 01:48:00;;;;;;;11.35;10.18;;;;;;;22.98;100.00;99292.75;5089775;28;20689;-76
2022/08/15 01:50:30;;;;;;;13.60;10.65;;;;;;;23.00;100.00;99290.91;5092116;28;20209;-78
2022/08/15 01:53:03;;;;;;;14.50;9.77;;;;;;;22.88;100.00;99280.03;5075053;28;20206;-79
2022/08/15 01:55:39;;;;;;;12.50;9.98;;;;;;;23.09;100.00;99301.00;5074996;28;20195;-79
2022/08/15 01:58:08;;;;;;;10.93;9.82;;;;;;;23.01;100.00;99305.81;5058208;28;20187;-79
2022/08/15 02:00:37;;;;;;;11.32;10.18;;;;;;;22.53;100.00;99268.47;5074098;28;20222;-78
2022/08/15 02:03:05;;;;;;;10.73;9.65;;;;;;;22.85;100.00;99298.69;5089216;28;20201;-78
2022/08/15 02:05:31;;;;;;;13.52;10.18;;;;;;;22.75;100.00;99305.34;5042087;28;20207;-80
2022/08/15 02:07:58;;;;;;;11.80;10.40;;;;;;;22.79;100.00;99291.91;5093760;28;20209;-78
2022/08/15 02:10:25;;;;;;;13.55;9.93;;;;;;;22.72;100.00;99286.03;5091927;28;20205;-79
2022/08/15 02:12:53;;;;;;;12.80;10.27;;;;;;;22.59;100.00;99297.22;5053956;28;20724;-77
2022/08/15 02:15:21;;;;;;;12.60;9.88;;;;;;;22.61;100.00;99287.47;5076844;28;20678;-78
2022/08/15 02:17:48;;;;;;;11.30;10.13;;;;;;;22.46;100.00;99294.31;5093739;28;20214;-79
2022/08/15 02:20:17;;;;;;;11.38;10.18;;;;;;;22.39;100.00;99294.66;5091774;28;20230;-79
2022/08/15 02:22:44;;;;;;;12.60;10.90;;;;;;;22.21;100.00;99293.72;5082909;28;20209;-79
2022/08/15 02:25:11;;;;;;;11.55;10.35;;;;;;;22.40;100.00;99291.94;5056226;28;20202;-78
2022/08/15 02:27:40;;;;;;;10.23;9.23;;;;;;;22.59;100.00;99305.16;5038368;28;20195;-79
2022/08/15 02:30:12;;;;;;;14.63;10.65;;;;;;;22.67;100.00;99303.91;5053177;28;20207;-79
2022/08/15 02:32:40;;;;;;;10.98;9.85;;;;;;;22.42;100.00;99300.66;5055443;28;20214;-79
2022/08/15 02:35:12;;;;;;;11.73;10.48;;;;;;;22.57;100.00;99304.38;5089888;28;20205;-79
2022/08/15 02:37:39;;;;;;;12.93;9.38;;;;;;;22.13;100.00;99291.41;5077112;28;20230;-79
2022/08/15 02:40:11;;;;;;;10.40;9.23;;;;;;;22.44;100.00;99290.03;5042067;28;20214;-78
2022/08/15 02:42:38;;;;;;;9.68;8.77;;;;;;;22.60;100.00;99309.53;5076357;28;20195;-79
2022/08/15 02:45:10;;;;;;;9.57;8.48;;;;;;;22.75;100.00;99316.78;5036662;28;20195;-78
2022/08/15 02:47:43;;;;;;;9.65;8.75;;;;;;;22.69;100.00;99287.97;5053722;28;20190;-78
2022/08/15 02:50:11;;;;;;;11.43;8.85;;;;;;;22.63;100.00;99318.16;5093348;28;20206;-80
2022/08/15 02:52:40;;;;;;;9.85;8.40;;;;;;;22.91;100.00;99301.91;5084977;28;20202;-79
2022/08/15 02:55:08;;;;;;;9.13;8.25;;;;;;;23.04;100.00;99321.56;5076801;28;20210;-79
2022/08/15 02:57:36;;;;;;;8.98;8.05;;;;;;;23.01;100.00;99308.44;5086088;28;20202;-79
2022/08/15 03:00:05;;;;;;;8.27;7.47;;;;;;;23.08;100.00;99304.59;5073548;28;20242;-79
2022/08/15 03:02:47;;;;;;;13.02;8.15;;;;;;;23.12;100.00;99337.88;5092535;28;20194;-79
2022/08/15 03:05:16;;;;;;;9.52;8.07;;;;;;;23.36;100.00;99345.59;5089552;28;20195;-78
2022/08/15 03:07:44;;;;;;;9.30;8.40;;;;;;;23.31;100.00;99342.28;5073170;28;20195;-79
2022/08/15 03:10:11;;;;;;;9.10;8.20;;;;;;;23.12;100.00;99326.44;5092569;28;20580;-80
2022/08/15 03:12:48;;;;;;;12.55;7.90;;;;;;;23.33;100.00;99346.56;5092504;28;20194;-81
2022/08/15 03:15:15;;;;;;;8.90;7.65;;;;;;;23.35;100.00;99338.56;5084515;28;20583;-77
2022/08/15 03:17:42;;;;;;;9.45;8.45;;;;;;;23.57;100.00;99337.47;5072886;28;20207;-80
2022/08/15 03:20:10;;;;;;;8.70;7.90;;;;;;;23.56;100.00;99348.13;5088855;28;20630;-78
2022/08/15 03:22:44;;;;;;;9.25;8.35;;;;;;;23.58;100.00;99309.22;5072283;28;20202;-78
2022/08/15 03:25:11;;;;;;;8.75;7.93;;;;;;;23.77;100.00;99347.06;5076149;28;20202;-80
2022/08/15 03:27:41;;;;;;;9.80;7.55;;;;;;;23.79;100.00;99337.25;5092069;28;20206;-78
2022/08/15 03:30:10;;;;;;;9.65;8.75;;;;;;;23.59;100.00;99327.66;5078044;28;20585;-79
2022/08/15 03:32:43;;;;;;;8.43;7.53;;;;;;;23.52;100.00;99330.69;5051417;28;20190;-80
2022/08/15 03:35:10;;;;;;;9.65;7.40;;;;;;;23.47;100.00;99344.13;5092663;28;20209;-76
2022/08/15 03:37:37;;;;;;;9.43;8.48;;;;;;;23.08;100.00;99328.38;5091795;28;20225;-77
2022/08/15 03:40:08;;;;;;;8.68;7.80;;;;;;;23.25;100.00;99326.72;5051710;28;20727;-80
2022/08/15 03:42:34;;;;;;;11.02;8.35;;;;;;;23.08;100.00;99341.59;5052848;28;20225;-79
2022/08/15 03:45:03;;;;;;;12.40;8.27;;;;;;;23.03;100.00;99327.75;5083167;28;20705;-79
2022/08/15 03:47:30;;;;;;;8.65;7.75;;;;;;;23.03;100.00;99345.41;5072340;28;20717;-80
2022/08/15 03:49:57;;;;;;;10.07;7.90;;;;;;;22.76;100.00;99321.13;5085128;28;20202;-78
2022/08/15 03:52:24;;;;;;;9.73;8.05;;;;;;;22.82;100.00;99320.00;5091770;28;20674;-79
2022/08/15 03:54:51;;;;;;;8.68;7.78;;;;;;;22.84;100.00;99348.06;5090238;28;20198;-79
2022/08/15 03:57:19;;;;;;;9.07;8.27;;;;;;;23.20;100.00;99348.09;5068017;28;20619;-79
2022/08/15 03:59:46;;;;;;;9.00;7.53;;;;;;;23.15;100.00;99347.50;5071241;28;20226;-77
2022/08/15 04:02:13;;;;;;;8.57;7.60;;;;;;;23.29;100.00;99345.03;5023519;28;20188;-76
2022/08/15 04:04:40;;;;;;;7.15;6.55;;;;;;;23.33;100.00;99343.09;5068402;28;20190;-79
2022/08/15 04:07:07;;;;;;;7.90;7.20;;;;;;;23.11;100.00;99346.78;5088078;28;20205;-81
2022/08/15 04:09:34;;;;;;;7.93;6.80;;;;;;;23.39;100.00;99342.78;5072047;28;20202;-80
2022/08/15 04:12:01;;;;;;;7.85;7.00;;;;;;;23.41;100.00;99327.69;5035950;28;20210;-80
2022/08/15 04:14:30;;;;;;;7.20;6.60;;;;;;;23.74;100.00;99351.66;5081951;28;20190;-77
2022/08/15 04:16:59;;;;;;;11.02;7.72;;;;;;;23.70;100.00;99340.34;5073552;28;20194;-79
2022/08/15 04:19:25;;;;;;;8.65;7.85;;;;;;;23.61;100.00;99338.19;5067376;28;20255;-76
2022/08/15 04:21:52;;;;;;;7.97;6.25;;;;;;;23.53;100.00;99337.69;5073471;28;20194;-79
2022/08/15 04:24:19;;;;;;;7.32;6.57;;;;;;;23.68;100.00;99336.94;5037017;28;20554;-77
2022/08/15 04:26:46;;;;;;;9.73;6.95;;;;;;;23.73;100.00;99334.91;5089190;28;20194;-77
2022/08/15 04:29:13;;;;;;;8.45;7.35;;;;;;;23.55;100.00;99336.69;5078260;28;20199;-77
2022/08/15 04:31:41;;;;;;;7.47;6.72;;;;;;;23.50;100.00;99306.09;5030874;28;20223;-75
2022/08/15 04:34:08;;;;;;;7.15;6.47;;;;;;;23.71;100.00;99326.19;5064539;28;20203;-76
2022/08/15 04:36:36;;;;;;;7.93;6.53;;;;;;;23.85;100.00;99344.03;5065890;28;20219;-77
2022/08/15 04:39:04;;;;;;;7.38;6.72;;;;;;;23.83;100.00;99327.38;5071268;28;20826;-76
2022/08/15 04:41:32;;;;;;;7.43;6.10;;;;;;;23.55;100.00;99351.69;5069470;28;20255;-76
2022/08/15 04:43:58;;;;;;;7.50;5.80;;;;;;;23.68;100.00;99342.25;5070361;28;20214;-77
2022/08/15 04:46:25;;;;;;;7.68;5.60;;;;;;;23.67;100.00;99327.28;5072510;28;20198;-75
2022/08/15 04:48:54;;;;;;;6.15;5.65;;;;;;;24.01;100.00;99337.84;5033666;28;20219;-77
2022/08/15 04:51:21;;;;;;;8.52;6.00;;;;;;;24.08;100.00;99336.59;5070693;28;20225;-77
2022/08/15 04:53:48;;;;;;;5.88;5.38;;;;;;;23.96;100.00;99349.63;5058333;28;20238;-77
2022/08/15 04:56:15;;;;;;;6.30;5.72;;;;;;;25.01;100.00;99359.00;5080044;28;20205;-75
2022/08/15 04:58:42;;;;;;;8.00;6.13;;;;;;;24.96;100.00;99347.81;5072731;28;20198;-77
2022/08/15 05:01:11;;;;;;;7.18;5.18;;;;;;;25.69;100.00;99361.38;5075249;28;20716;-76
2022/08/15 05:03:39;;;;;;;6.65;5.65;;;;;;;25.71;100.00;99368.34;5043565;28;20200;-78
2022/08/15 05:06:09;;;;;;;11.52;5.13;;;;;;;25.86;100.00;99340.88;5086926;28;20208;-77
2022/08/15 05:08:38;;;;;;;8.43;5.00;;;;;;;26.93;100.00;99373.28;5090542;28;20201;-75
2022/08/15 05:11:08;;;;;;;6.05;4.57;;;;;;;27.68;99.67;99366.66;5078077;28;20206;-77
2022/08/15 05:13:37;;;;;;;5.13;4.68;;;;;;;27.92;97.71;99346.34;5061416;28;20750;-78
2022/08/15 05:16:07;;;;;;;5.00;4.60;;;;;;;28.33;95.57;99372.88;5074869;28;20649;-76
2022/08/15 05:18:36;;;;;;;4.72;4.43;;;;;;;28.47;91.91;99355.91;5061595;28;20209;-76
2022/08/15 05:21:03;;;;;;;7.15;4.90;;;;;;;28.28;93.40;99376.81;5068676;28;20226;-76
2022/08/15 05:23:32;;;;;;;6.35;4.35;;;;;;;28.03;91.54;99374.94;5073772;28;20226;-76
2022/08/15 05:26:01;;;;;;;5.40;4.90;;;;;;;27.79;93.77;99377.44;5067244;28;20195;-75
2022/08/15 05:28:28;;;;;;;5.45;5.05;;;;;;;27.14;98.83;99362.22;5068282;28;20210;-75
2022/08/15 05:30:56;;;;;;;6.13;5.22;;;;;;;27.46;99.01;99374.34;5070963;28;20202;-76
2022/08/15 05:33:25;;;;;;;6.13;4.82;;;;;;;27.30;99.87;99376.25;5058101;28;20202;-75
2022/08/15 05:35:56;;;;;;;7.53;4.90;;;;;;;27.28;100.00;99373.72;5065035;28;20232;-76
2022/08/15 05:38:27;;;;;;;7.72;4.80;;;;;;;26.50;100.00;99358.28;5070828;28;20191;-76
2022/08/15 05:41:15;;;;;;;7.20;6.35;;;;;;;26.51;100.00;99310.28;5070398;28;20215;-75
2022/08/15 05:43:51;;;;;;;5.72;4.55;;;;;;;26.59;100.00;99369.19;5027877;28;20722;-77
2022/08/15 05:46:24;;;;;;;5.78;5.22;;;;;;;27.01;100.00;99373.66;5067162;28;20206;-76
2022/08/15 05:49:01;;;;;;;11.55;5.10;;;;;;;26.63;100.00;99369.84;5078503;28;20638;-76
2022/08/15 05:51:35;;;;;;;13.65;4.85;;;;;;;27.25;98.56;99379.22;5073610;28;20692;-76
2022/08/15 05:54:16;;;;;;;4.90;4.47;;;;;;;26.47;100.00;99337.19;5069697;28;20209;-76
2022/08/15 05:56:54;;;;;;;5.95;4.90;;;;;;;27.29;98.72;99382.56;5069001;28;20203;-76
2022/08/15 05:59:32;;;;;;;7.15;5.10;;;;;;;27.13;99.67;99363.19;5072832;28;20571;-76
2022/08/15 06:02:06;;;;;;;8.40;5.15;;;;;;;27.36;96.49;99365.22;5059664;28;20219;-76
2022/08/15 06:04:42;;;;;;;6.22;4.72;;;;;;;27.67;95.62;99375.59;5058730;28;20200;-76
2022/08/15 06:07:16;;;;;;;6.05;4.85;;;;;;;27.22;94.14;99341.31;5065551;28;20203;-76
2022/08/15 06:09:46;;;;;;;5.53;5.03;;;;;;;26.88;97.04;99348.78;5056981;28;20207;-75
2022/08/15 06:12:20;;;;;;;5.07;4.78;;;;;;;27.04;97.90;99367.31;5052671;28;20199;-77
2022/08/15 06:14:51;;;;;;;5.25;4.85;;;;;;;26.77;100.00;99335.28;5052406;28;20202;-76
2022/08/15 06:17:23;;;;;;;5.75;5.25;;;;;;;26.93;99.03;99364.47;5052422;28;20218;-75
2022/08/15 06:19:52;;;;;;;6.25;4.65;;;;;;;26.86;100.00;99366.63;5052307;28;20196;-75
2022/08/15 06:22:36;;;;;;;5.07;4.50;;;;;;;26.46;95.94;99292.94;5051900;28;20631;-75
2022/08/15 06:25:15;;;;;;;8.23;4.45;;;;;;;26.49;99.66;99354.75;5052457;28;20218;-76
2022/08/15 06:27:57;;;;;;;8.00;4.75;;;;;;;26.89;95.68;99370.94;5052060;28;20203;-75
2022/08/15 06:30:29;;;;;;;4.90;4.50;;;;;;;26.27;99.55;99357.00;5052296;28;20197;-76
2022/08/15 06:33:04;;;;;;;5.75;5.13;;;;;;;26.55;98.82;99382.75;5051827;28;20207;-76
2022/08/15 06:35:42;;;;;;;5.28;4.88;;;;;;;26.53;99.19;99379.34;5016586;28;20205;-75
2022/08/15 06:38:19;;;;;;;6.07;5.18;;;;;;;26.98;97.08;99359.69;5052284;28;20206;-75
2022/08/15 06:40:53;;;;;;;4.63;4.20;;;;;;;27.40;94.42;99388.00;5051780;28;20262;-77
2022/08/15 06:43:22;;;;;;;5.65;5.07;;;;;;;27.94;89.77;99384.41;5051875;28;20202;-75
2022/08/15 06:45:51;;;;;;;4.78;4.38;;;;;;;27.86;88.72;99389.38;5051898;28;20206;-76
2022/08/15 06:48:21;;;;;;;6.90;5.57;;;;;;;28.24;88.21;99391.31;5051659;28;20195;-76
2022/08/15 06:50:51;;;;;;;8.77;5.07;;;;;;;28.46;88.39;99391.56;5052145;28;20203;-76
2022/08/15 06:53:23;;;;;;;5.32;4.82;;;;;;;28.65;83.71;99375.94;5051812;28;20615;-76
2022/08/15 06:55:57;;;;;;;6.35;4.82;;;;;;;28.75;84.67;99397.56;5051907;28;20218;-76
2022/08/15 06:58:37;;;;;;;6.75;5.20;;;;;;;28.94;82.44;99397.94;5051777;28;20203;-76
2022/08/15 07:01:17;;;;;;;7.22;4.85;;;;;;;28.45;82.63;99392.50;5033839;28;20234;-76
2022/08/15 07:03:53;;;;;;;5.20;4.80;;;;;;;28.44;84.30;99394.31;5051295;28;20286;-76
2022/08/15 07:06:30;;;;;;;6.78;5.40;;;;;;;28.69;83.45;99401.50;5051173;28;20231;-76
2022/08/15 07:09:02;;;;;;;5.95;5.10;;;;;;;28.73;83.65;99404.81;5051084;28;20691;-76
2022/08/15 07:11:37;;;;;;;5.40;4.72;;;;;;;28.49;85.20;99402.00;5051172;28;20211;-76
2022/08/15 07:14:23;;;;;;;6.45;5.40;;;;;;;28.43;87.89;99419.28;5051124;28;20737;-76
2022/08/15 07:17:02;;;;;;;6.10;5.60;;;;;;;27.95;88.63;99362.13;5051565;28;20222;-79
2022/08/15 07:19:29;;;;;;;6.70;6.00;;;;;;;28.08;89.37;99411.00;5051148;28;20287;-76
2022/08/15 07:21:55;;;;;;;6.75;5.75;;;;;;;28.13;88.38;99393.84;5032487;28;20345;-76
2022/08/15 07:24:29;;;;;;;5.70;5.20;;;;;;;28.85;84.13;99419.97;5051185;28;20203;-76
2022/08/15 07:26:59;;;;;;;5.55;5.07;;;;;;;28.67;83.37;99419.44;5050781;28;20218;-77
2022/08/15 07:29:33;;;;;;;9.43;5.18;;;;;;;28.76;83.68;99421.44;5051002;28;20246;-76
2022/08/15 07:32:03;;;;;;;6.05;5.50;;;;;;;29.24;79.23;99394.91;5050830;28;20199;-78
2022/08/15 07:34:30;;;;;;;5.57;5.07;;;;;;;29.40;77.21;99424.88;5050810;28;20279;-76
2022/08/15 07:37:01;;;;;;;5.28;4.88;;;;;;;29.30;77.99;99429.19;5050360;28;20239;-77
2022/08/15 07:39:30;;;;;;;5.47;4.97;;;;;;;28.84;78.45;99400.41;5053906;28;20195;-76
2022/08/15 07:41:59;;;;;;;5.80;5.00;;;;;;;28.66;79.92;99428.38;5059271;28;20234;-77
2022/08/15 07:44:30;;;;;;;5.75;5.35;;;;;;;28.60;79.74;99423.47;5061722;28;20687;-76
2022/08/15 07:47:00;;;;;;;6.93;5.65;;;;;;;28.65;80.07;99402.63;5051211;28;20689;-75
2022/08/15 07:49:30;;;;;;;5.60;5.10;;;;;;;28.77;79.07;99406.31;5070328;28;20211;-76
2022/08/15 07:52:06;;;;;;;6.25;5.40;;;;;;;29.22;77.24;99421.69;5070140;28;20210;-75
2022/08/15 07:54:45;;;;;;;6.75;6.00;;;;;;;29.14;77.78;99423.25;5057769;28;20244;-75
2022/08/15 07:57:21;;;;;;;6.47;5.85;;;;;;;28.54;80.71;99399.84;5070740;28;20198;-75
2022/08/15 08:00:08;;;;;;;7.82;6.00;;;;;;;28.75;79.67;99422.44;5070439;28;20198;-75
2022/08/15 08:02:40;;;;;;;6.18;5.57;;;;;;;28.58;81.44;99415.56;5070106;28;20229;-75
2022/08/15 08:05:08;;;;;;;7.57;6.10;;;;;;;28.42;82.74;99420.25;5070163;28;20231;-75
2022/08/15 08:07:38;;;;;;;10.15;5.63;;;;;;;28.65;84.20;99415.13;5070247;28;20190;-76
2022/08/15 08:10:14;;;;;;;11.02;5.85;;;;;;;28.90;81.14;99409.81;5034712;28;20198;-76
2022/08/15 08:12:54;;;;;;;7.30;6.10;;;;;;;28.81;79.12;99413.13;5069992;28;20198;-75
2022/08/15 08:15:36;;;;;;;6.00;5.40;;;;;;;29.09;77.15;99417.34;5070247;28;20198;-76
2022/08/15 08:18:06;;;;;;;5.82;5.22;;;;;;;28.63;78.45;99393.03;5067373;28;20426;-76
2022/08/15 08:20:39;;;;;;;10.05;5.75;;;;;;;28.75;78.79;99393.09;5034148;28;20256;-79
2022/08/15 08:23:14;;;;;;;6.00;5.50;;;;;;;29.52;73.11;99414.19;5066091;28;20210;-76
2022/08/15 08:25:52;;;;;;;7.20;5.43;;;;;;;29.26;73.53;99404.53;5069708;28;20210;-76
2022/08/15 08:28:30;;;;;;;6.88;5.90;;;;;;;29.26;74.91;99401.84;5069866;28;20206;-76
2022/08/15 08:31:03;;;;;;;5.97;5.45;;;;;;;29.37;73.77;99401.94;5069868;28;20225;-76
2022/08/15 08:33:44;;;;;;;5.18;4.75;;;;;;;29.15;72.57;99396.41;5069493;28;20222;-77
2022/08/15 08:36:22;;;;;;;8.27;5.10;;;;;;;29.13;71.36;99394.81;5055339;28;20234;-77
2022/08/15 08:38:58;;;;;;;7.53;5.85;;;;;;;29.20;74.52;99396.94;5069719;28;20201;-77
2022/08/15 08:41:36;;;;;;;6.43;5.82;;;;;;;29.28;72.27;99402.63;5069847;28;20218;-77
2022/08/15 08:44:23;;;;;;;6.10;5.65;;;;;;;29.36;71.20;99360.16;5069822;28;20217;-77
2022/08/15 08:47:16;;;;;;;6.07;5.57;;;;;;;29.52;68.51;99389.28;5069810;28;20283;-77
2022/08/15 08:49:55;;;;;;;4.97;4.57;;;;;;;29.23;67.90;99377.16;5069442;28;20203;-76
2022/08/15 08:52:32;;;;;;;4.90;4.50;;;;;;;29.53;64.94;99364.28;5061809;28;20211;-76
2022/08/15 08:55:05;;;;;;;5.88;4.93;;;;;;;29.26;65.38;99376.94;5065420;28;20205;-76
2022/08/15 08:57:36;;;;;;;5.72;4.90;;;;;;;29.59;63.64;99374.50;5073972;28;20211;-76
2022/08/15 09:00:11;;;;;;;4.47;4.07;;;;;;;29.56;60.80;99379.22;5073351;28;20717;-76
2022/08/15 09:02:45;;;;;;;4.95;4.47;;;;;;;29.71;59.38;99372.72;5073284;28;20218;-76
2022/08/15 09:05:22;;;;;;;4.95;4.38;;;;;;;29.59;58.27;99370.97;5059679;28;20223;-76
2022/08/15 09:07:56;;;;;;;4.40;4.10;;;;;;;29.53;58.65;99375.81;5073522;28;20198;-76
2022/08/15 09:10:26;;;;;;;5.53;4.88;;;;;;;29.41;61.28;99375.84;5037798;28;20752;-76
2022/08/15 09:15:43;;;;;;;7.18;6.28;;;;;;;30.00;64.70;99369.56;5073230;28;20271;-76
2022/08/15 09:18:19;;;;;;;6.70;5.25;;;;;;;29.65;64.66;99363.34;5073215;28;20210;-75
2022/08/15 09:20:48;;;;;;;7.45;6.75;;;;;;;29.33;70.78;99367.53;5072873;28;20201;-75
2022/08/15 09:23:17;;;;;;;6.53;5.93;;;;;;;29.25;70.60;99353.88;5073315;28;20205;-76
2022/08/15 09:25:55;;;;;;;7.53;6.60;;;;;;;29.34;70.34;99366.59;5071405;28;20645;-76
2022/08/15 09:28:29;;;;;;;7.30;6.53;;;;;;;28.91;74.54;99366.13;5062408;28;20199;-76
2022/08/15 09:30:59;;;;;;;8.80;6.85;;;;;;;29.08;76.10;99364.91;5058968;28;20267;-76
2022/08/15 09:34:01;;;;;;;15.23;7.00;;;;;;;29.22;76.75;99360.28;5054640;28;20488;-75
2022/08/15 09:36:41;;;;;;;6.88;6.28;;;;;;;29.26;75.02;99360.91;5073074;28;20664;-76
2022/08/15 09:39:26;;;;;;;8.43;5.93;;;;;;;28.81;75.56;99370.44;5076499;28;20217;-75
2022/08/15 09:42:09;;;;;;;7.10;6.40;;;;;;;29.36;73.86;99362.00;5061129;28;20233;-75
2022/08/15 09:45:07;;;;;;;7.00;6.28;;;;;;;29.52;71.41;99354.53;5073201;28;20442;-75
2022/08/15 09:47:54;;;;;;;8.07;6.38;;;;;;;29.75;70.80;99340.28;5072938;28;20202;-75
2022/08/15 09:50:37;;;;;;;7.00;6.30;;;;;;;29.91;70.47;99351.56;5053833;28;20667;-74
2022/08/15 09:53:11;;;;;;;10.05;6.68;;;;;;;30.04;69.46;99364.03;5055035;28;20213;-75
2022/08/15 09:55:44;;;;;;;7.32;6.68;;;;;;;29.92;68.03;99339.91;5031179;28;20198;-76
2022/08/15 09:58:17;;;;;;;7.22;6.53;;;;;;;30.36;66.88;99355.19;5073559;28;20234;-76
2022/08/15 10:00:58;;;;;;;7.18;5.80;;;;;;;30.42;64.24;99359.25;5072165;28;20233;-74
2022/08/15 10:03:49;;;;;;;6.45;5.85;;;;;;;30.58;63.02;99358.91;5071990;28;20205;-75
2022/08/15 10:06:19;;;;;;;9.55;6.47;;;;;;;31.13;60.67;99374.13;5072313;28;20202;-75
2022/08/15 10:09:09;;;;;;;8.50;6.65;;;;;;;31.05;62.37;99363.19;5071880;28;20198;-77
2022/08/15 10:11:58;;;;;;;6.90;6.20;;;;;;;30.17;65.69;99360.28;5058620;28;20203;-76
2022/08/15 10:14:27;;;;;;;9.60;7.20;;;;;;;30.39;65.95;99340.75;5072216;28;20655;-78
2022/08/15 10:17:00;;;;;;;11.00;6.80;;;;;;;30.18;66.82;99361.97;5072426;28;20210;-75
2022/08/15 10:19:38;;;;;;;10.25;6.30;;;;;;;30.57;65.38;99365.25;5072163;28;20194;-74
2022/08/15 10:22:43;;;;;;;8.45;6.60;;;;;;;30.05;66.53;99366.56;5072006;28;20256;-75
2022/08/15 10:25:20;;;;;;;7.70;6.90;;;;;;;30.44;66.11;99362.66;5072069;28;20195;-75
2022/08/15 10:28:05;;;;;;;7.38;6.50;;;;;;;30.85;64.60;99368.28;5072036;28;20203;-75
2022/08/15 10:30:35;;;;;;;7.38;6.68;;;;;;;30.91;63.31;99359.75;5072126;28;20285;-74
2022/08/15 10:33:25;;;;;;;7.47;6.78;;;;;;;30.92;62.43;99349.91;5036621;28;20202;-76
2022/08/15 10:35:55;;;;;;;7.85;6.43;;;;;;;30.45;63.80;99334.94;5071841;28;20260;-74
2022/08/15 10:38:29;;;;;;;7.70;7.00;;;;;;;30.57;63.74;99363.41;5071815;28;20207;-78
2022/08/15 10:41:03;;;;;;;8.10;7.07;;;;;;;30.12;67.78;99358.91;5071754;28;20214;-78
2022/08/15 10:43:59;;;;;;;8.70;7.78;;;;;;;30.06;68.09;99359.41;5071728;28;20249;-76
2022/08/15 10:46:44;;;;;;;12.23;7.13;;;;;;;29.63;69.94;99322.53;5029405;28;20215;-77
2022/08/15 10:49:31;;;;;;;8.05;7.25;;;;;;;29.88;69.24;99349.13;5029137;28;20273;-76
2022/08/15 10:52:16;;;;;;;11.15;7.30;;;;;;;30.12;67.83;99348.22;5029088;28;20203;-75
2022/08/15 10:55:01;;;;;;;7.28;6.38;;;;;;;30.20;66.29;99353.84;5029251;28;20607;-76
2022/08/15 10:57:36;;;;;;;7.38;6.40;;;;;;;30.19;64.99;99352.97;5029203;28;20207;-76
2022/08/15 11:00:06;;;;;;;7.25;6.32;;;;;;;30.47;63.85;99354.38;5029146;28;20253;-77
2022/08/15 11:02:41;;;;;;;6.82;6.22;;;;;;;30.95;60.51;99349.66;5028963;28;20661;-77
2022/08/15 11:05:10;;;;;;;7.80;6.90;;;;;;;31.19;59.35;99331.63;5029036;28;20230;-77
2022/08/15 11:07:40;;;;;;;8.85;6.47;;;;;;;31.10;58.94;99340.41;5029028;28;20204;-76
2022/08/15 11:10:12;;;;;;;7.13;6.53;;;;;;;31.79;57.91;99355.19;5028827;28;20235;-76
2022/08/15 11:12:44;;;;;;;8.40;6.63;;;;;;;31.86;57.22;99334.06;5028838;28;20203;-77
2022/08/15 11:15:16;;;;;;;7.75;6.95;;;;;;;32.31;55.87;99337.38;5028871;28;20192;-78
2022/08/15 11:17:46;;;;;;;8.52;6.50;;;;;;;31.20;58.73;99344.03;5028683;28;20200;-77
2022/08/15 11:20:17;;;;;;;7.32;6.55;;;;;;;31.60;58.31;99344.31;5027720;28;20242;-77
2022/08/15 11:22:51;;;;;;;10.82;6.68;;;;;;;31.11;59.87;99341.28;5036705;28;20230;-76
2022/08/15 11:25:24;;;;;;;7.80;7.00;;;;;;;31.11;58.64;99327.88;5071188;28;20221;-76
2022/08/15 11:28:06;;;;;;;8.32;6.03;;;;;;;31.32;58.68;99326.13;5071347;28;20194;-76
2022/08/15 11:30:35;;;;;;;9.63;6.85;;;;;;;31.51;57.07;99312.88;5070817;28;20231;-76
2022/08/15 11:33:23;;;;;;;7.97;6.47;;;;;;;31.55;56.49;99313.50;5068700;28;20211;-76
2022/08/15 11:36:02;;;;;;;7.25;6.53;;;;;;;31.37;56.02;99310.50;5070035;28;20202;-77
2022/08/15 11:38:30;;;;;;;6.25;5.63;;;;;;;31.53;55.46;99331.56;5069968;28;20202;-76
2022/08/15 11:41:00;;;;;;;5.80;5.28;;;;;;;31.60;54.00;99338.13;5070307;28;20203;-76
2022/08/15 11:43:28;;;;;;;12.10;5.57;;;;;;;31.14;52.89;99328.47;5070278;28;20237;-76
2022/08/15 11:45:57;;;;;;;5.85;5.05;;;;;;;30.91;51.35;99300.84;5070571;28;20207;-76
2022/08/15 11:48:27;;;;;;;5.32;4.82;;;;;;;31.50;51.24;99324.56;5069955;28;20198;-78
2022/08/15 11:51:01;;;;;;;4.78;4.20;;;;;;;31.63;48.96;99319.94;5070460;28;20197;-78
2022/08/15 11:53:31;;;;;;;4.45;4.10;;;;;;;31.82;47.02;99328.13;5070366;28;20201;-78
2022/08/15 11:55:59;;;;;;;5.20;4.40;;;;;;;31.64;47.37;99328.84;5069938;28;20195;-79